Time;durP1;ratioP1;P1;durP2;ratioP2;P2;SDS_P1;SDS_P2;PMS_P1;PMS_P2;Temp;Humidity;BMP_temperature;BMP_pressure;BME280_temperature;BME280_humidity;BME280_pressure;Samples;Min_cycle;Max_cycle;Signal;HPM_P1;HPM_P2
2020/12/30 00:01:27;;;;;;;13.50;8.48;;;0.30;99.90;;;;;;5074635;28;20090;-73
2020/12/30 00:03:53;;;;;;;14.02;9.13;;;0.30;99.90;;;;;;5074727;28;20078;-74
2020/12/30 00:06:20;;;;;;;14.43;9.02;;;0.20;99.90;;;;;;5092089;28;20028;-73
2020/12/30 00:08:47;;;;;;;12.73;8.52;;;0.30;99.90;;;;;;5074658;28;20062;-73
2020/12/30 00:11:15;;;;;;;12.32;8.52;;;0.20;99.90;;;;;;5092595;28;20093;-73
2020/12/30 00:13:41;;;;;;;14.77;9.27;;;0.20;99.90;;;;;;5095057;28;20491;-73
2020/12/30 00:16:06;;;;;;;12.77;9.23;;;0.10;99.90;;;;;;5061034;28;20043;-73
2020/12/30 00:18:32;;;;;;;13.40;8.93;;;0.20;99.90;;;;;;5077352;28;20534;-73
2020/12/30 00:21:00;;;;;;;13.35;8.38;;;0.20;99.90;;;;;;5096569;28;20035;-73
2020/12/30 00:23:26;;;;;;;16.17;9.80;;;0.30;99.90;;;;;;5096347;28;20064;-73
2020/12/30 00:25:52;;;;;;;12.32;9.27;;;0.30;99.90;;;;;;5096750;28;20055;-73
2020/12/30 00:28:19;;;;;;;16.55;9.88;;;0.30;99.90;;;;;;5084994;28;20044;-73
2020/12/30 00:30:45;;;;;;;13.45;8.80;;;0.40;99.90;;;;;;5095843;28;20039;-73
2020/12/30 00:33:12;;;;;;;14.75;8.65;;;0.40;99.90;;;;;;5096339;28;20111;-73
2020/12/30 00:35:38;;;;;;;11.27;8.35;;;0.40;99.90;;;;;;5100517;28;20491;-73
2020/12/30 00:38:04;;;;;;;;;;;0.30;99.90;;;;;;5096779;28;20070;-73
2020/12/30 00:40:30;;;;;;;14.05;9.75;;;0.10;99.90;;;;;;5095462;28;19920;-74
2020/12/30 00:42:56;;;;;;;14.05;9.30;;;0.20;99.90;;;;;;5098121;28;20471;-73
2020/12/30 00:45:22;;;;;;;13.35;8.50;;;0.10;99.90;;;;;;5075373;28;20052;-73
2020/12/30 00:47:49;;;;;;;11.85;7.97;;;0.00;99.90;;;;;;5078146;28;20046;-73
2020/12/30 00:50:15;;;;;;;12.73;8.30;;;0.00;99.90;;;;;;5096001;28;20060;-73
2020/12/30 00:52:41;;;;;;;13.05;8.15;;;0.00;99.90;;;;;;5081763;28;20074;-73
2020/12/30 00:55:07;;;;;;;13.00;8.30;;;0.00;99.90;;;;;;5104265;28;20041;-73
2020/12/30 00:57:32;;;;;;;11.98;7.95;;;0.00;99.90;;;;;;5074021;28;20214;-73
2020/12/30 00:59:58;;;;;;;15.27;8.63;;;0.00;99.90;;;;;;5077641;28;20032;-73
2020/12/30 01:02:25;;;;;;;14.10;8.35;;;-0.20;99.90;;;;;;5079973;28;20495;-74
2020/12/30 01:04:51;;;;;;;13.65;8.65;;;-0.20;99.90;;;;;;5078643;28;20040;-73
2020/12/30 01:07:18;;;;;;;16.00;9.45;;;-0.30;99.90;;;;;;5095193;28;20070;-73
2020/12/30 01:09:44;;;;;;;13.73;8.48;;;-0.30;99.90;;;;;;5095616;28;20035;-73
2020/12/30 01:12:10;;;;;;;18.60;9.45;;;-0.30;99.90;;;;;;5077371;28;20036;-73
2020/12/30 01:14:35;;;;;;;16.10;8.35;;;-0.30;99.90;;;;;;5077598;28;20406;-73
2020/12/30 01:17:01;;;;;;;12.70;8.10;;;-0.30;99.90;;;;;;5095611;28;20082;-73
2020/12/30 01:19:28;;;;;;;12.98;7.38;;;-0.30;99.90;;;;;;5073825;28;20094;-73
2020/12/30 01:21:54;;;;;;;14.27;9.18;;;-0.30;99.90;;;;;;5092490;28;20155;-73
2020/12/30 01:24:20;;;;;;;14.43;9.43;;;-0.40;99.90;;;;;;5095347;28;20111;-73
2020/12/30 01:26:46;;;;;;;16.90;9.82;;;-0.30;99.90;;;;;;5075381;28;20059;-73
2020/12/30 01:29:12;;;;;;;17.42;11.30;;;-0.20;99.90;;;;;;5071095;28;20076;-73
2020/12/30 01:31:38;;;;;;;12.05;8.45;;;-0.20;99.90;;;;;;5095355;28;20039;-73
2020/12/30 01:34:06;;;;;;;11.02;8.73;;;-0.30;99.90;;;;;;5094590;28;20480;-73
2020/12/30 01:36:34;;;;;;;13.23;8.55;;;-0.20;99.90;;;;;;5073465;28;20043;-73
2020/12/30 01:39:00;;;;;;;14.38;9.07;;;-0.20;99.90;;;;;;5075672;28;20082;-73
2020/12/30 01:41:26;;;;;;;12.40;7.50;;;-0.20;99.90;;;;;;5094870;28;20072;-73
2020/12/30 01:44:00;;;;;;;10.93;7.80;;;-0.20;99.90;;;;;;5076589;28;20032;-73
2020/12/30 01:46:34;;;;;;;10.80;7.97;;;-0.10;99.90;;;;;;5076910;28;20487;-73
2020/12/30 01:49:01;;;;;;;14.10;7.80;;;0.00;99.90;;;;;;5078268;28;20040;-73
2020/12/30 01:51:28;;;;;;;13.18;8.35;;;0.00;99.90;;;;;;5083643;28;20036;-73
2020/12/30 01:53:55;;;;;;;13.32;8.02;;;0.10;99.90;;;;;;5094814;28;20499;-73
2020/12/30 01:56:26;;;;;;;12.35;8.57;;;0.20;99.90;;;;;;5091581;28;20085;-73
2020/12/30 01:58:53;;;;;;;11.55;8.07;;;0.20;99.90;;;;;;5078634;28;20487;-73
2020/12/30 02:01:22;;;;;;;11.93;8.73;;;0.20;99.90;;;;;;5095861;28;20103;-78
2020/12/30 02:03:52;;;;;;;11.98;8.02;;;0.20;99.90;;;;;;5065814;22;20483;-73
2020/12/30 02:06:18;;;;;;;10.52;6.85;;;0.20;99.90;;;;;;5045871;28;20037;-73
2020/12/30 02:08:44;;;;;;;8.93;6.95;;;0.20;99.90;;;;;;5045014;28;20037;-72
2020/12/30 02:11:10;;;;;;;11.50;8.13;;;0.30;99.90;;;;;;5051967;28;20055;-73
2020/12/30 02:13:36;;;;;;;12.85;8.55;;;0.30;99.90;;;;;;5049691;28;20045;-73
2020/12/30 02:16:02;;;;;;;16.35;8.93;;;0.20;99.90;;;;;;5049924;28;20518;-73
2020/12/30 02:18:28;;;;;;;13.93;7.75;;;0.20;99.90;;;;;;5043791;28;20570;-73
2020/12/30 02:20:57;;;;;;;10.50;7.25;;;0.10;99.90;;;;;;5048207;28;20060;-73
2020/12/30 02:23:23;;;;;;;13.48;7.75;;;0.10;99.90;;;;;;5046124;28;20045;-72
2020/12/30 02:25:50;;;;;;;;;;;0.10;99.90;;;;;;5047413;28;20144;-72
2020/12/30 02:28:16;;;;;;;12.85;7.63;;;0.10;99.90;;;;;;5046936;28;20022;-72
2020/12/30 02:30:42;;;;;;;11.40;8.13;;;0.10;99.90;;;;;;5050026;28;20436;-72
2020/12/30 02:33:08;;;;;;;13.57;8.18;;;0.00;99.90;;;;;;5045391;28;20044;-72
2020/12/30 02:35:34;;;;;;;10.68;7.13;;;0.10;99.90;;;;;;5044825;28;20048;-72
2020/12/30 02:38:00;;;;;;;11.27;7.50;;;0.10;99.90;;;;;;5050467;28;20040;-73
2020/12/30 02:40:26;;;;;;;9.45;7.10;;;0.10;99.90;;;;;;5053488;28;20103;-73
2020/12/30 02:42:52;;;;;;;9.35;6.60;;;0.10;99.90;;;;;;5045831;28;20037;-73
2020/12/30 02:45:19;;;;;;;14.00;7.88;;;0.10;99.90;;;;;;5050079;28;20067;-73
2020/12/30 02:47:45;;;;;;;10.73;6.75;;;0.20;99.90;;;;;;5046167;28;20045;-73
2020/12/30 02:50:11;;;;;;;11.68;6.90;;;0.20;99.90;;;;;;5048352;28;20442;-73
2020/12/30 02:52:40;;;;;;;9.82;6.40;;;0.20;99.90;;;;;;5052280;28;20094;-72
2020/12/30 02:55:05;;;;;;;9.82;6.45;;;0.20;99.90;;;;;;5051061;28;20051;-72
2020/12/30 02:57:31;;;;;;;10.23;6.70;;;0.10;99.90;;;;;;5046025;28;20033;-72
2020/12/30 02:59:58;;;;;;;10.05;6.75;;;0.20;99.90;;;;;;5048972;28;20114;-72
2020/12/30 03:02:25;;;;;;;10.30;6.55;;;0.20;99.90;;;;;;5047223;28;20057;-72
2020/12/30 03:04:52;;;;;;;9.35;5.90;;;0.40;99.90;;;;;;5051426;28;20403;-73
2020/12/30 03:07:18;;;;;;;8.50;6.05;;;0.50;99.90;;;;;;5052317;28;20550;-72
2020/12/30 03:09:44;;;;;;;10.43;6.47;;;0.50;99.90;;;;;;5040055;28;20045;-73
2020/12/30 03:12:10;;;;;;;10.82;6.32;;;0.50;99.90;;;;;;5049469;28;20084;-73
2020/12/30 03:14:35;;;;;;;11.07;6.07;;;0.40;99.90;;;;;;5053097;28;20044;-73
2020/12/30 03:17:02;;;;;;;7.43;5.53;;;0.40;99.90;;;;;;5037773;28;20439;-73
2020/12/30 03:19:28;;;;;;;9.35;5.60;;;0.50;99.90;;;;;;5051566;28;20040;-72
2020/12/30 03:21:55;;;;;;;10.68;6.45;;;0.50;99.90;;;;;;5042853;28;20036;-72
2020/12/30 03:24:21;;;;;;;7.53;5.68;;;0.50;99.90;;;;;;5048730;28;20094;-72
2020/12/30 03:26:47;;;;;;;8.30;5.97;;;0.40;99.90;;;;;;5049550;28;20037;-72
2020/12/30 03:29:13;;;;;;;7.82;5.63;;;0.50;99.80;;;;;;5048486;28;20107;-73
2020/12/30 03:31:39;;;;;;;7.70;5.55;;;0.50;99.80;;;;;;5035898;28;20369;-72
2020/12/30 03:34:08;;;;;;;7.30;5.78;;;0.50;99.70;;;;;;5037570;28;20065;-72
2020/12/30 03:36:34;;;;;;;9.18;5.78;;;0.50;99.60;;;;;;5052045;28;20037;-72
2020/12/30 03:39:00;;;;;;;9.77;5.95;;;0.50;99.50;;;;;;5050129;28;20051;-72
2020/12/30 03:41:26;;;;;;;6.82;5.32;;;0.50;99.60;;;;;;5047859;28;20029;-72
2020/12/30 03:43:52;;;;;;;7.47;4.95;;;0.50;99.60;;;;;;5052485;28;20544;-73
2020/12/30 03:46:18;;;;;;;8.35;5.68;;;0.50;99.40;;;;;;5046533;28;20039;-73
2020/12/30 03:48:44;;;;;;;8.95;5.22;;;0.50;99.20;;;;;;5040270;28;20127;-72
2020/12/30 03:51:10;;;;;;;9.38;6.00;;;0.50;99.20;;;;;;5039400;28;20045;-73
2020/12/30 03:53:36;;;;;;;8.88;5.88;;;0.50;99.40;;;;;;5045832;28;20095;-73
2020/12/30 03:56:03;;;;;;;7.00;5.00;;;0.40;99.60;;;;;;5039808;28;20037;-73
2020/12/30 03:58:29;;;;;;;8.85;5.55;;;0.40;99.50;;;;;;5044393;28;20570;-72
2020/12/30 04:00:55;;;;;;;11.18;6.82;;;0.40;99.70;;;;;;5049252;28;20044;-73
2020/12/30 04:03:21;;;;;;;9.07;5.32;;;0.40;99.50;;;;;;5047177;28;20053;-73
2020/12/30 04:05:49;;;;;;;8.02;5.20;;;0.30;99.60;;;;;;5048041;28;20511;-73
2020/12/30 04:08:16;;;;;;;8.75;5.18;;;0.30;99.70;;;;;;5044593;28;20068;-73
2020/12/30 04:10:42;;;;;;;8.95;5.40;;;0.30;99.60;;;;;;5050197;28;20037;-72
2020/12/30 04:13:08;;;;;;;7.90;4.85;;;0.30;99.60;;;;;;5049920;28;20033;-73
2020/12/30 04:15:34;;;;;;;7.47;4.60;;;0.30;99.50;;;;;;5047386;28;20036;-73
2020/12/30 04:17:59;;;;;;;8.82;5.05;;;0.20;99.50;;;;;;5056291;28;20108;-72
2020/12/30 04:20:25;;;;;;;6.43;4.55;;;0.20;99.60;;;;;;5051480;28;20036;-72
2020/12/30 04:22:51;;;;;;;7.28;4.20;;;0.20;99.60;;;;;;5043062;28;20067;-73
2020/12/30 04:25:18;;;;;;;6.40;4.65;;;0.20;99.40;;;;;;5051268;28;20083;-73
2020/12/30 04:27:44;;;;;;;7.90;4.85;;;0.20;99.60;;;;;;5049413;28;20045;-72
2020/12/30 04:30:10;;;;;;;6.22;4.50;;;0.20;99.60;;;;;;5052714;28;20393;-73
2020/12/30 04:32:35;;;;;;;9.43;5.40;;;0.20;99.60;;;;;;5052281;28;20037;-73
2020/12/30 04:35:01;;;;;;;9.05;5.10;;;0.10;99.50;;;;;;5048419;28;20503;-73
2020/12/30 04:37:27;;;;;;;6.53;4.97;;;0.10;99.60;;;;;;5052841;28;20554;-73
2020/12/30 04:39:53;;;;;;;8.10;5.25;;;0.10;99.60;;;;;;5040037;28;20045;-73
2020/12/30 04:42:32;;;;;;;6.75;4.72;;;0.10;99.50;;;;;;5051611;28;20033;-73
2020/12/30 04:45:01;;;;;;;7.28;4.50;;;0.20;99.30;;;;;;5051253;28;20052;-73
2020/12/30 04:47:29;;;;;;;6.30;4.40;;;0.10;99.40;;;;;;5045012;28;20041;-73
2020/12/30 04:49:55;;;;;;;5.93;4.25;;;0.10;99.40;;;;;;5051015;28;20032;-72
2020/12/30 04:52:25;;;;;;;6.80;4.53;;;0.10;99.60;;;;;;5051040;28;20044;-72
2020/12/30 04:54:51;;;;;;;8.52;5.18;;;0.00;99.80;;;;;;5053815;28;20043;-72
2020/12/30 04:57:29;;;;;;;9.48;5.07;;;0.00;99.90;;;;;;5046098;28;20037;-73
2020/12/30 04:59:56;;;;;;;7.45;5.00;;;0.00;99.90;;;;;;5048441;28;20040;-73
2020/12/30 05:02:31;;;;;;;6.68;4.13;;;0.00;99.90;;;;;;5043069;28;20459;-72
2020/12/30 05:04:57;;;;;;;6.00;4.18;;;0.20;99.70;;;;;;5035969;28;20493;-73
2020/12/30 05:07:26;;;;;;;6.07;4.40;;;0.30;99.40;;;;;;5044251;28;20041;-72
2020/12/30 05:09:57;;;;;;;7.13;4.57;;;0.40;99.70;;;;;;5044075;28;20116;-73
2020/12/30 05:12:25;;;;;;;5.35;4.15;;;0.40;99.90;;;;;;5052737;28;20450;-73
2020/12/30 05:14:51;;;;;;;5.95;4.20;;;0.30;99.90;;;;;;5046771;28;20426;-72
2020/12/30 05:17:17;;;;;;;6.68;4.30;;;0.30;99.90;;;;;;5052060;28;20040;-73
2020/12/30 05:19:45;;;;;;;7.43;4.32;;;0.30;99.80;;;;;;5051828;28;20377;-73
2020/12/30 05:22:18;;;;;;;5.95;4.10;;;0.30;99.50;;;;;;5053195;28;20043;-73
2020/12/30 05:24:45;;;;;;;;;;;0.30;99.40;;;;;;5045792;28;20052;-73
2020/12/30 05:27:12;;;;;;;;;;;0.30;99.20;;;;;;5037224;28;19928;-73
2020/12/30 05:29:44;;;;;;;6.57;4.05;;;0.50;98.60;;;;;;5048890;28;19921;-73
2020/12/30 05:32:10;;;;;;;8.35;4.43;;;0.50;98.50;;;;;;5041387;28;20041;-72
2020/12/30 05:34:39;;;;;;;7.97;4.10;;;0.50;98.40;;;;;;5046667;28;20043;-72
2020/12/30 05:37:05;;;;;;;5.45;3.92;;;0.50;98.50;;;;;;5042121;28;20065;-73
2020/12/30 05:39:34;;;;;;;6.95;3.55;;;0.40;98.60;;;;;;5044509;28;20072;-73
2020/12/30 05:42:16;;;;;;;5.30;3.45;;;0.40;98.40;;;;;;5044051;28;20064;-72
2020/12/30 05:44:44;;;;;;;5.68;4.03;;;0.40;98.20;;;;;;5042200;28;20037;-72
2020/12/30 05:47:11;;;;;;;8.48;4.05;;;0.40;98.40;;;;;;5051063;28;20111;-73
2020/12/30 05:49:37;;;;;;;7.03;3.90;;;0.40;98.10;;;;;;5052396;28;20061;-73
2020/12/30 05:52:14;;;;;;;6.53;4.22;;;0.40;98.00;;;;;;5050923;28;20095;-73
2020/12/30 05:54:46;;;;;;;7.70;4.15;;;0.40;98.10;;;;;;5039253;28;20033;-72
2020/12/30 05:57:28;;;;;;;9.20;5.03;;;0.40;98.10;;;;;;5052005;28;20047;-72
2020/12/30 05:59:57;;;;;;;6.97;4.13;;;0.30;98.20;;;;;;5039400;28;20120;-73
2020/12/30 06:02:28;;;;;;;8.05;4.55;;;0.30;98.20;;;;;;5048770;28;20443;-72
2020/12/30 06:04:55;;;;;;;7.10;4.95;;;0.40;98.10;;;;;;5049439;28;20037;-72
2020/12/30 06:07:24;;;;;;;7.13;3.97;;;0.30;98.30;;;;;;5043845;28;20045;-73
2020/12/30 06:09:53;;;;;;;7.60;4.30;;;0.40;97.90;;;;;;5048526;28;20040;-73
2020/12/30 06:12:25;;;;;;;7.53;4.82;;;0.30;97.90;;;;;;5040118;28;20041;-73
2020/12/30 06:14:51;;;;;;;6.75;3.67;;;0.20;98.10;;;;;;5051081;28;20061;-72
2020/12/30 06:17:26;;;;;;;5.78;3.80;;;0.30;97.80;;;;;;5048010;28;20033;-72
2020/12/30 06:19:53;;;;;;;8.07;4.10;;;0.20;98.20;;;;;;5040664;28;20045;-72
2020/12/30 06:22:21;;;;;;;8.27;3.88;;;0.10;98.30;;;;;;5038910;28;20034;-73
2020/12/30 06:24:50;;;;;;;6.88;4.57;;;0.10;98.20;;;;;;5051863;28;20040;-73
2020/12/30 06:27:19;;;;;;;7.63;4.68;;;0.20;98.20;;;;;;5042611;28;20381;-73
2020/12/30 06:29:45;;;;;;;8.98;5.05;;;0.10;98.10;;;;;;5040928;28;20089;-73
2020/12/30 06:32:23;;;;;;;6.22;4.28;;;0.10;98.10;;;;;;5053036;28;20041;-73
2020/12/30 06:34:50;;;;;;;6.53;3.92;;;0.10;98.30;;;;;;5039578;28;20042;-73
2020/12/30 06:37:25;;;;;;;7.90;4.03;;;0.00;98.20;;;;;;5044366;28;20044;-72
2020/12/30 06:40:22;;;;;;;7.85;4.22;;;0.00;98.30;;;;;;5047587;28;20041;-72
2020/12/30 06:42:49;;;;;;;6.70;3.78;;;0.00;98.20;;;;;;5045908;28;20079;-73
2020/12/30 06:45:43;;;;;;;5.57;3.75;;;0.00;98.00;;;;;;5046359;28;20128;-72
2020/12/30 06:48:09;;;;;;;5.55;3.25;;;0.10;97.90;;;;;;5048183;28;20037;-73
2020/12/30 06:50:37;;;;;;;7.85;3.80;;;0.10;97.80;;;;;;5050404;28;20424;-72
2020/12/30 06:53:29;;;;;;;8.48;3.60;;;0.20;97.60;;;;;;5041230;28;20091;-73
2020/12/30 06:55:56;;;;;;;5.22;3.15;;;0.20;97.60;;;;;;5035039;28;20523;-72
2020/12/30 06:58:47;;;;;;;4.28;2.65;;;0.20;97.40;;;;;;5042603;28;20040;-73
2020/12/30 07:01:13;;;;;;;;;;;0.20;97.20;;;;;;5040289;28;20064;-73
2020/12/30 07:03:40;;;;;;;3.30;1.75;;;0.40;96.60;;;;;;5040376;28;19928;-73
2020/12/30 07:06:28;;;;;;;3.72;2.58;;;0.40;96.50;;;;;;5042870;28;20037;-72
2020/12/30 07:08:55;;;;;;;3.75;2.20;;;0.50;96.40;;;;;;5043639;28;20040;-73
2020/12/30 07:11:36;;;;;;;;;;;0.60;96.00;;;;;;5051589;28;20044;-73
2020/12/30 07:14:04;;;;;;;;;;;0.70;95.80;;;;;;5049077;28;19927;-73
2020/12/30 07:16:33;;;;;;;4.78;2.30;;;0.60;95.90;;;;;;5047059;28;19917;-73
2020/12/30 07:18:59;;;;;;;4.32;3.08;;;0.60;95.80;;;;;;5043694;28;20029;-72
2020/12/30 07:21:26;;;;;;;4.50;3.40;;;0.70;95.70;;;;;;5043805;28;20033;-73
2020/12/30 07:23:56;;;;;;;4.60;2.10;;;0.80;95.20;;;;;;5046232;28;20048;-72
2020/12/30 07:26:21;;;;;;;;;;;0.80;95.10;;;;;;5039906;28;20050;-73
2020/12/30 07:28:48;;;;;;;4.82;2.60;;;;;;;;;;5044450;28;19963;-72
2020/12/30 07:31:16;;;;;;;4.13;2.53;;;0.90;94.70;;;;;;5048140;28;20139;-73
2020/12/30 07:33:42;;;;;;;6.43;2.75;;;1.00;94.60;;;;;;5042154;28;20121;-72
2020/12/30 07:36:09;;;;;;;5.05;1.95;;;0.90;94.50;;;;;;5044582;28;20124;-72
2020/12/30 07:38:36;;;;;;;3.58;2.05;;;0.90;94.70;;;;;;5047417;28;20037;-73
2020/12/30 07:41:07;;;;;;;3.50;1.80;;;0.90;94.60;;;;;;5037717;28;20067;-72
2020/12/30 07:43:47;;;;;;;3.20;2.20;;;0.90;94.70;;;;;;5036341;28;20049;-72
2020/12/30 07:46:17;;;;;;;4.35;2.05;;;0.90;94.60;;;;;;5040379;28;20131;-73
2020/12/30 07:48:43;;;;;;;2.78;1.90;;;0.90;94.40;;;;;;5043077;28;20400;-73
2020/12/30 07:51:09;;;;;;;3.75;2.10;;;1.00;94.30;;;;;;5038684;28;20049;-73
2020/12/30 07:53:36;;;;;;;5.68;2.40;;;1.00;94.50;;;;;;5041051;28;20428;-72
2020/12/30 07:56:02;;;;;;;5.07;2.63;;;0.90;95.00;;;;;;5043804;28;20041;-73
2020/12/30 07:58:28;;;;;;;;;;;0.90;94.80;;;;;;5041959;28;20038;-73
2020/12/30 08:00:53;;;;;;;3.17;1.73;;;1.00;94.30;;;;;;5045831;28;19990;-73
2020/12/30 08:03:21;;;;;;;5.72;1.95;;;0.90;94.40;;;;;;5036815;28;20050;-73
2020/12/30 08:05:49;;;;;;;10.98;2.30;;;1.00;94.40;;;;;;5036752;28;20485;-73
2020/12/30 08:08:16;;;;;;;3.97;2.25;;;1.00;94.00;;;;;;5043357;28;20974;-73
2020/12/30 08:10:43;;;;;;;3.63;2.38;;;0.90;94.10;;;;;;5038262;28;20374;-73
2020/12/30 08:13:09;;;;;;;4.45;3.50;;;0.90;94.30;;;;;;5041617;28;20072;-72
2020/12/30 08:15:35;;;;;;;6.95;3.13;;;0.90;94.40;;;;;;5041901;28;20053;-73
2020/12/30 08:18:01;;;;;;;6.00;2.97;;;0.90;94.10;;;;;;5040286;28;20071;-72
2020/12/30 08:20:27;;;;;;;7.30;3.30;;;1.00;94.10;;;;;;5044302;28;20060;-73
2020/12/30 08:22:56;;;;;;;4.05;2.72;;;1.00;94.00;;;;;;5051292;28;20471;-73
2020/12/30 08:25:24;;;;;;;5.18;2.92;;;0.90;94.30;;;;;;5048086;28;20040;-73
2020/12/30 08:27:51;;;;;;;4.43;2.55;;;;;;;;;;5046506;28;20397;-74
2020/12/30 08:30:17;;;;;;;4.28;3.00;;;;;;;;;;5045377;28;20079;-73
2020/12/30 08:32:55;;;;;;;4.82;2.45;;;1.00;93.80;;;;;;5039463;28;20042;-73
2020/12/30 08:35:27;;;;;;;5.35;2.30;;;1.10;93.30;;;;;;5033698;28;20073;-73
2020/12/30 08:38:05;;;;;;;4.10;2.33;;;1.20;93.40;;;;;;5063732;28;20492;-73
2020/12/30 08:40:33;;;;;;;3.53;2.08;;;1.40;93.00;;;;;;5040172;28;20038;-73
2020/12/30 08:43:30;;;;;;;5.07;2.13;;;1.40;92.60;;;;;;5047142;28;20041;-73
2020/12/30 08:46:05;;;;;;;3.33;2.17;;;1.60;92.00;;;;;;5038816;28;20049;-73
2020/12/30 08:48:32;;;;;;;3.92;2.40;;;;;;;;;;5040173;28;20037;-72
2020/12/30 08:50:58;;;;;;;4.63;2.75;;;1.70;92.20;;;;;;5036064;28;20041;-73
2020/12/30 08:53:34;;;;;;;3.70;2.42;;;2.00;91.40;;;;;;5046765;28;20029;-73
2020/12/30 08:56:00;;;;;;;4.28;2.83;;;2.20;91.30;;;;;;5051191;28;20045;-72
2020/12/30 08:58:27;;;;;;;7.38;2.90;;;2.40;90.60;;;;;;5051102;28;20037;-72
2020/12/30 09:00:53;;;;;;;5.10;2.67;;;2.40;90.70;;;;;;5048998;28;20047;-74
2020/12/30 09:03:20;;;;;;;4.68;2.40;;;;;;;;;;5051183;28;20053;-74
2020/12/30 09:05:51;;;;;;;2.40;1.95;;;2.60;90.40;;;;;;5051450;28;20123;-73
2020/12/30 09:08:18;;;;;;;;;;;2.80;88.10;;;;;;5050662;28;20049;-73
2020/12/30 09:10:45;;;;;;;3.28;1.73;;;2.90;88.00;;;;;;5052868;28;19916;-73
2020/12/30 09:13:11;;;;;;;6.72;3.05;;;3.00;87.10;;;;;;5051116;28;20597;-73
2020/12/30 09:15:39;;;;;;;6.40;2.30;;;3.00;86.80;;;;;;5051061;28;20083;-73
2020/12/30 09:18:06;;;;;;;3.67;2.00;;;3.10;86.40;;;;;;5050951;28;20554;-73
2020/12/30 09:20:32;;;;;;;3.47;2.08;;;3.10;86.70;;;;;;5052586;28;20484;-73
2020/12/30 09:23:00;;;;;;;3.63;1.80;;;3.20;85.40;;;;;;5051947;28;20099;-73
2020/12/30 09:25:27;;;;;;;4.50;1.95;;;3.30;85.60;;;;;;5049997;28;20511;-73
2020/12/30 09:27:53;;;;;;;;;;;3.40;85.00;;;;;;5052960;28;20037;-73
2020/12/30 09:30:20;;;;;;;;;;;3.50;83.70;;;;;;5051093;28;19916;-73
2020/12/30 09:32:49;;;;;;;3.58;1.67;;;3.60;84.00;;;;;;5051610;28;19927;-73
2020/12/30 09:35:16;;;;;;;2.92;1.63;;;3.70;83.10;;;;;;5051333;28;20061;-73
2020/12/30 09:37:50;;;;;;;2.72;2.25;;;3.80;82.00;;;;;;5052801;28;20032;-73
2020/12/30 09:40:16;;;;;;;4.97;2.00;;;3.90;81.90;;;;;;5050241;28;20037;-73
2020/12/30 09:42:44;;;;;;;5.57;2.53;;;3.90;82.90;;;;;;5051069;28;20171;-73
2020/12/30 09:45:12;;;;;;;4.90;2.67;;;3.90;81.40;;;;;;5050551;28;20063;-73
2020/12/30 09:47:39;;;;;;;9.85;3.22;;;4.00;80.10;;;;;;5050136;28;20053;-73
2020/12/30 09:50:07;;;;;;;;;;;4.10;80.40;;;;;;5050437;28;20036;-72
2020/12/30 09:52:33;;;;;;;;;;;4.10;80.60;;;;;;5051120;28;20011;-71
2020/12/30 09:54:59;;;;;;;;;;;4.30;80.10;;;;;;5050180;28;19924;-74
2020/12/30 09:57:24;;;;;;;;;;;4.40;79.80;;;;;;5051886;28;19917;-73
2020/12/30 09:59:50;;;;;;;5.72;2.22;;;4.40;79.10;;;;;;5051612;28;19924;-71
2020/12/30 10:02:16;;;;;;;4.82;2.05;;;4.50;78.10;;;;;;5050288;28;20252;-73
2020/12/30 10:04:42;;;;;;;;;;;4.70;76.70;;;;;;5049425;28;20495;-74
2020/12/30 10:07:09;;;;;;;;;;;4.70;76.40;;;;;;5049297;28;19956;-73
2020/12/30 10:09:35;;;;;;;3.05;1.38;;;4.80;75.00;;;;;;5050145;28;19928;-73
2020/12/30 10:12:01;;;;;;;4.35;2.13;;;4.90;74.90;;;;;;5048072;28;20440;-74
2020/12/30 10:14:27;;;;;;;4.20;2.22;;;4.80;75.60;;;;;;5049082;28;20749;-74
2020/12/30 10:16:53;;;;;;;;;;;5.00;74.20;;;;;;5051606;28;20033;-74
2020/12/30 10:19:18;;;;;;;;;;;5.00;73.80;;;;;;5049354;28;19917;-73
2020/12/30 10:21:44;;;;;;;;;;;5.10;73.10;;;;;;5050543;28;19924;-74
2020/12/30 10:24:10;;;;;;;3.00;1.90;;;5.10;73.20;;;;;;5049978;28;20311;-74
2020/12/30 10:26:36;;;;;;;;;;;5.10;72.50;;;;;;5051297;28;20041;-73
2020/12/30 10:29:02;;;;;;;;;;;5.20;71.80;;;;;;5049708;28;19923;-74
2020/12/30 10:31:28;;;;;;;4.20;1.90;;;5.20;72.90;;;;;;5050395;28;19924;-74
2020/12/30 10:33:54;;;;;;;;;;;5.30;72.50;;;;;;5050977;28;20043;-74
2020/12/30 10:36:21;;;;;;;;;;;5.30;71.90;;;;;;5049885;28;19925;-74
2020/12/30 10:38:47;;;;;;;;;;;5.40;71.10;;;;;;5051237;28;19916;-72
2020/12/30 10:41:17;;;;;;;4.43;2.00;;;5.40;73.30;;;;;;5049232;28;19921;-73
2020/12/30 10:43:43;;;;;;;3.22;1.90;;;5.50;71.60;;;;;;5048797;28;20451;-73
2020/12/30 10:46:13;;;;;;;2.67;1.73;;;5.60;70.40;;;;;;5047930;28;20409;-73
2020/12/30 10:48:41;;;;;;;4.50;2.08;;;5.70;71.30;;;;;;5049115;28;20397;-73
2020/12/30 10:51:10;;;;;;;4.43;2.10;;;5.80;70.70;;;;;;5048544;28;20511;-74
2020/12/30 10:53:36;;;;;;;3.15;2.20;;;5.90;70.60;;;;;;5043301;28;20484;-71
2020/12/30 10:56:02;;;;;;;3.30;1.70;;;6.00;70.60;;;;;;5047517;28;20429;-73
2020/12/30 10:58:30;;;;;;;4.07;1.70;;;6.20;67.40;;;;;;5047378;28;20397;-74
2020/12/30 11:00:56;;;;;;;3.22;1.67;;;6.30;68.70;;;;;;5048980;28;21400;-73
2020/12/30 11:03:22;;;;;;;2.92;1.63;;;6.20;67.80;;;;;;5045407;28;20417;-73
2020/12/30 11:05:48;;;;;;;2.83;1.60;;;6.30;68.00;;;;;;5045039;28;20397;-71
2020/12/30 11:08:14;;;;;;;2.72;1.50;;;6.30;67.60;;;;;;5046971;28;21283;-73
2020/12/30 11:10:40;;;;;;;2.90;1.60;;;;;;;;;;5047967;28;20401;-71
2020/12/30 11:13:06;;;;;;;2.78;1.67;;;6.50;66.00;;;;;;5047609;28;20429;-74
2020/12/30 11:15:35;;;;;;;1.90;1.20;;;6.70;64.80;;;;;;5048867;28;21090;-73
2020/12/30 11:18:02;;;;;;;1.70;1.13;;;6.70;67.00;;;;;;5047520;28;20539;-71
2020/12/30 11:20:28;;;;;;;2.13;1.50;;;6.90;64.80;;;;;;5047408;28;21003;-71
2020/12/30 11:22:53;;;;;;;2.28;1.17;;;7.10;63.50;;;;;;5047050;28;20480;-73
2020/12/30 11:25:19;;;;;;;1.63;0.90;;;7.10;62.70;;;;;;5048288;28;20397;-71
2020/12/30 11:27:45;;;;;;;1.30;0.97;;;7.10;62.50;;;;;;5048611;28;20426;-71
2020/12/30 11:30:11;;;;;;;2.25;1.00;;;7.00;63.10;;;;;;5049269;28;20398;-72
2020/12/30 11:32:43;;;;;;;2.67;1.30;;;7.40;61.60;;;;;;5047103;28;20414;-71
2020/12/30 11:35:10;;;;;;;1.55;1.00;;;7.40;62.10;;;;;;5048236;28;20427;-71
2020/12/30 11:37:36;;;;;;;1.98;1.15;;;7.60;61.70;;;;;;5048460;28;20867;-71
2020/12/30 11:40:02;;;;;;;1.63;0.93;;;7.60;60.50;;;;;;5047599;28;20488;-71
2020/12/30 11:42:28;;;;;;;1.92;1.20;;;7.70;63.00;;;;;;5047962;28;20399;-71
2020/12/30 11:44:54;;;;;;;1.80;1.13;;;7.80;62.10;;;;;;5047886;28;20872;-71
2020/12/30 11:47:23;;;;;;;1.77;0.80;;;7.70;61.90;;;;;;5046368;28;20965;-71
2020/12/30 11:49:50;;;;;;;2.03;1.03;;;7.80;59.10;;;;;;5048229;28;20393;-72
2020/12/30 11:52:16;;;;;;;1.15;0.73;;;8.00;59.30;;;;;;5047253;28;20446;-71
2020/12/30 11:54:41;;;;;;;1.15;0.70;;;8.30;83.80;;;;;;5047839;28;20908;-71
2020/12/30 11:57:07;;;;;;;1.10;0.70;;;8.30;86.40;;;;;;5046944;28;20492;-70
2020/12/30 11:59:33;;;;;;;2.03;1.00;;;8.30;89.30;;;;;;5046435;28;20433;-71
2020/12/30 12:01:59;;;;;;;2.10;1.08;;;8.50;90.30;;;;;;5048216;28;20397;-70
2020/12/30 12:04:25;;;;;;;1.00;0.60;;;8.40;90.40;;;;;;5048795;28;20827;-71
2020/12/30 12:06:56;;;;;;;1.20;0.70;;;8.40;88.90;;;;;;5048000;28;20389;-71
2020/12/30 12:09:23;;;;;;;2.00;1.17;;;;;;;;;;5044508;28;20403;-73
2020/12/30 12:11:49;;;;;;;1.45;1.00;;;8.50;93.80;;;;;;5046210;28;20419;-71
2020/12/30 12:14:15;;;;;;;1.90;0.90;;;8.60;56.60;;;;;;5049609;28;20415;-73
2020/12/30 12:16:42;;;;;;;1.50;0.87;;;;;;;;;;5037414;28;20819;-73
2020/12/30 12:19:08;;;;;;;2.00;0.90;;;9.00;77.60;;;;;;5045689;28;20411;-71
2020/12/30 12:21:33;;;;;;;1.30;0.90;;;9.00;90.20;;;;;;5042641;28;20914;-71
2020/12/30 12:24:00;;;;;;;1.65;1.02;;;9.00;77.90;;;;;;5050721;28;20450;-72
2020/12/30 12:26:27;;;;;;;1.58;1.00;;;9.10;86.90;;;;;;5047516;28;20720;-71
2020/12/30 12:29:00;;;;;;;1.48;1.02;;;9.00;89.20;;;;;;5052380;28;20393;-72
2020/12/30 12:31:26;;;;;;;1.98;1.10;;;9.20;87.40;;;;;;5067358;28;20943;-71
2020/12/30 12:33:52;;;;;;;1.77;1.10;;;9.20;54.80;;;;;;5051054;28;20400;-71
2020/12/30 12:36:22;;;;;;;3.70;1.65;;;9.30;56.40;;;;;;5048182;28;20404;-71
2020/12/30 12:38:48;;;;;;;1.63;0.93;;;10.10;56.90;;;;;;5038742;28;20471;-71
2020/12/30 12:41:16;;;;;;;1.60;1.40;;;9.40;55.70;;;;;;5049927;28;20487;-72
2020/12/30 12:43:42;;;;;;;1.85;1.30;;;9.50;54.60;;;;;;5052041;28;20545;-71
2020/12/30 12:46:14;;;;;;;2.00;1.30;;;9.40;56.20;;;;;;5049840;28;20435;-71
2020/12/30 12:48:40;;;;;;;2.22;1.10;;;9.40;56.90;;;;;;5046067;28;20409;-72
2020/12/30 12:51:09;;;;;;;1.83;1.10;;;9.50;60.40;;;;;;5048925;28;20901;-71
2020/12/30 12:53:35;;;;;;;2.83;1.40;;;9.70;56.30;;;;;;5048584;28;20393;-71
2020/12/30 12:56:01;;;;;;;1.95;1.40;;;9.80;56.10;;;;;;5047229;28;20387;-71
2020/12/30 12:58:29;;;;;;;2.30;1.20;;;;;;;;;;5048349;28;20410;-71
2020/12/30 13:00:55;;;;;;;2.22;1.40;;;10.20;93.00;;;;;;5049494;28;20431;-72
2020/12/30 13:03:21;;;;;;;2.70;1.73;;;9.80;79.50;;;;;;5047209;28;21004;-72
2020/12/30 13:05:47;;;;;;;2.35;1.65;;;9.50;80.70;;;;;;5051711;28;20480;-71